• Join FlightAware (Why Join?)
  • Login
  • US Flag 
04:04AM EDT


 

Airport Tracker/Info


-or-


 

Live Flight TrackerFlight Track Log ✈ D-QFJG ✈ 11-Apr-2013 ✈ YSSY / SYD - NFFN / NAN

Flight Track Log - Related Links

Times and Time Zones

All times are in EDT time to prevent confusion due to time zone crossing. See the D-QFJG flight status page for this flight to view local times or setup timezone preferences in your user account.

Time Position Orientation Groundspeed Altitude Reporting Facility
EDT Latitude Longitude Course Direction KTS MPH feet Rate Location/Type
11:08PM -33.9093 151.1659 314° West 183 211 1,700  Level Aus ATC (RADAR)
11:09PM -33.8567 151.1009 314° West 236 272 4,400 2,220 Climbing Aus ATC (RADAR)
11:09PM -33.8227 151.0590 314° West 260 299 5,800 2,280 Climbing Aus ATC (RADAR)
11:10PM -33.8091 151.0416 313° West 272 313 6,500 3,000 Climbing Aus ATC (RADAR)
11:10PM -33.7733 151.0060 320° Northwest 285 328 8,300 2,820 Climbing Aus ATC (RADAR)
11:11PM -33.7036 150.9985 355° North 286 329 10,600 2,280 Climbing Aus ATC (RADAR)
11:12PM -33.6814 151.0556 65° Northeast 301 346 11,800 1,860 Climbing Aus ATC (RADAR)
11:13PM -33.7068 151.1715 105° East 353 406 13,700 1,860 Climbing Aus ATC (RADAR)
11:14PM -33.7283 151.2706 105° East 370 426 15,300 2,100 Climbing Aus ATC (RADAR)
11:15PM -33.7510 151.3742 105° East 384 442 17,200 2,160 Climbing Aus ATC (RADAR)
11:15PM -33.7677 151.4484 105° East 392 451 18,400 1,920 Climbing Aus ATC (RADAR)
11:16PM -33.7951 151.5692 105° East 409 471 20,100 1,860 Climbing Aus ATC (RADAR)
11:17PM -33.8125 151.6479 105° East 416 479 21,200 1,740 Climbing Aus ATC (RADAR)
11:18PM -33.8431 151.7852 105° East 423 487 22,900 1,620 Climbing Aus ATC (RADAR)
11:18PM -33.8630 151.8748 105° East 430 495 23,900 1,500 Climbing Aus ATC (RADAR)
11:19PM -33.9000 152.0434 105° East 442 509 25,700 1,440 Climbing Aus ATC (RADAR)
11:20PM -33.9056 152.0862 99° East 450 518 26,000 1,260 Climbing Aus ATC (RADAR)
11:20PM -33.9068 152.1765 91° East 459 528 26,800 1,260 Climbing Aus ATC (RADAR)
11:21PM -33.9080 152.3340 91° East 469 540 28,000 1,200 Climbing Aus ATC (RADAR)
11:22PM -33.9086 152.4268 90° East 472 543 28,700 1,140 Climbing Aus ATC (RADAR)
11:23PM -33.9091 152.5826 90° East 470 541 29,800 1,080 Climbing Aus ATC (RADAR)
11:23PM -33.9084 152.6826 90° East 480 552 30,500 1,080 Climbing Aus ATC (RADAR)
11:24PM -33.8542 152.8243 65° Northeast 468 539 31,600 1,020 Climbing Aus ATC (RADAR)
11:25PM -33.8365 152.8585 58° Northeast 474 545 31,800 1,020 Climbing Aus ATC (RADAR)
11:25PM -33.7967 152.9470 62° Northeast 487 560 32,500 1,080 Climbing Aus ATC (RADAR)
11:26PM -33.7371 153.0768 61° Northeast 485 558 33,500 1,080 Climbing Aus ATC (RADAR)
11:27PM -33.6957 153.1657 61° Northeast 474 545 34,200 1,020 Climbing Aus ATC (RADAR)
11:28PM -33.6256 153.3167 61° Northeast 467 537 35,300 540 Climbing Aus ATC (RADAR)
11:28PM -33.5856 153.4022 61° Northeast 477 549 35,200 -60 Descending Aus ATC (RADAR)
11:30PM -33.4984 153.5875 61° Northeast 480 552 35,200  Level Aus ATC (RADAR)
11:30PM -33.4822 153.6222 61° Northeast 479 551 35,200  Level Aus ATC (RADAR)
11:31PM -33.4440 153.7030 60° Northeast 480 552 35,200  Level Aus ATC (RADAR)
11:32PM -33.3751 153.8485 60° Northeast 463 533 35,200  Level Aus ATC (RADAR)
11:32PM -33.3363 153.9294 60° Northeast 466 536 35,200  Level Aus ATC (RADAR)
11:33PM -33.2706 154.0675 60° Northeast 463 533 35,200  Level Aus ATC (RADAR)
11:34PM -33.2135 154.1873 60° Northeast 478 550 35,200  Level Aus ATC (RADAR)
11:35PM -33.1750 154.2677 60° Northeast 474 545 35,200  Level Aus ATC (RADAR)
11:35PM -33.1550 154.3082 59° Northeast 462 532 35,200  Level Aus ATC (RADAR)
11:36PM -33.1161 154.3888 60° Northeast 464 534 35,200  Level Aus ATC (RADAR)
11:37PM -33.0496 154.5260 60° Northeast 463 533 35,200 60 Level Aus ATC (RADAR)
11:37PM -33.0110 154.6064 60° Northeast 463 533 35,300 60 Climbing Aus ATC (RADAR)
11:38PM -32.9467 154.7379 60° Northeast 480 552 35,300  Level Aus ATC (RADAR)
11:39PM -32.9053 154.8250 60° Northeast 463 533 35,300 -120 Level Aus ATC (RADAR)
11:40PM -32.8387 154.9568 59° Northeast 483 556 35,200  Descending Aus ATC (RADAR)
11:40PM -32.8216 154.9916 60° Northeast 485 558 35,300 120 Climbing Aus ATC (RADAR)
11:41PM -32.7850 155.0742 62° Northeast 484 557 35,300 -120 Level Aus ATC (RADAR)
11:42PM -32.7204 155.2132 61° Northeast 481 554 35,200 -120 Descending Aus ATC (RADAR)
11:42PM -32.6811 155.2944 60° Northeast 482 555 35,200 60 Level Aus ATC (RADAR)
11:43PM -32.6153 155.4388 62° Northeast 466 536 35,300 60 Climbing Aus ATC (RADAR)
11:44PM -32.5761 155.5202 60° Northeast 467 537 35,300  Level Aus ATC (RADAR)
11:45PM -32.5135 155.6523 61° Northeast 477 549 35,300 -120 Level Aus ATC (RADAR)
11:45PM -32.4978 155.6870 62° Northeast 478 550 35,200 -120 Descending Aus ATC (RADAR)
11:46PM -32.4609 155.7678 62° Northeast 477 549 35,200 60 Level Aus ATC (RADAR)
11:47PM -32.3920 155.9116 60° Northeast 461 531 35,300 60 Climbing Aus ATC (RADAR)
11:47PM -32.3538 155.9922 61° Northeast 461 531 35,300  Level Aus ATC (RADAR)
11:49PM -32.2658 156.1810 61° Northeast 482 555 35,300 -60 Level Aus ATC (RADAR)
11:49PM -32.2089 156.2960 60° Northeast 484 557 35,200 -180 Descending Aus ATC (RADAR)
11:53PM -31.9767 156.7802 63° Northeast 35,000 -60 Descending Aus ATC (Calculated)
11:53PM -31.9325 156.8803 254° West 35,000  Level Aus ATC (Calculated)
11:54PM -31.9949 156.6158 263° West  Level FlightAware Approximate
11:55PM -32.0178 156.6867 243° Southwest  Level FlightAware Approximate
11:56PM -31.9531 156.8338 63° Northeast  Level FlightAware Approximate
11:57PM -31.9142 156.9218 63° Northeast  Level FlightAware Approximate
11:57PM -31.7140 157.3717 90° East 35,000  Level Aus ATC (Calculated)
11:57PM -31.7140 157.3717 62° Northeast 35,000  Level Aus ATC (Calculated)
11:59PM -31.5838 157.6613 62° Northeast  Level FlightAware Approximate
12:00AM -31.5180 157.8071 62° Northeast  Level FlightAware Approximate
12:01AM -31.4519 157.9526 62° Northeast  Level FlightAware Approximate
12:02AM -31.3857 158.0979 62° Northeast  Level FlightAware Approximate
12:03AM -31.3194 158.2431 62° Northeast  Level FlightAware Approximate
12:04AM -31.2528 158.3880 62° Northeast  Level FlightAware Approximate
12:05AM -31.1861 158.5327 62° Northeast  Level FlightAware Approximate
12:06AM -31.1193 158.6772 62° Northeast  Level FlightAware Approximate
12:07AM -31.0523 158.8215 62° Northeast  Level FlightAware Approximate
12:08AM -30.9851 158.9656 61° Northeast  Level FlightAware Approximate
12:09AM -30.9178 159.1095 61° Northeast  Level FlightAware Approximate
12:10AM -30.8503 159.2532 61° Northeast  Level FlightAware Approximate
12:11AM -30.7826 159.3967 61° Northeast  Level FlightAware Approximate
12:12AM -30.7148 159.5400 61° Northeast  Level FlightAware Approximate
12:12AM -30.5988 159.7840 241° Southwest 35,000  Level Aus ATC (Calculated)
12:13AM -30.6469 159.6830 61° Northeast  Level FlightAware Approximate
12:13AM -30.5500 159.8860 61° Northeast 35,000  Level Aus ATC (Calculated)
12:13AM -30.5027 159.9849 61° Northeast 35,000  Level Aus ATC (Calculated)
12:15AM -30.4308 160.1344 61° Northeast  Level FlightAware Approximate
12:16AM -30.3622 160.2767 61° Northeast  Level FlightAware Approximate
12:17AM -30.2934 160.4187 61° Northeast  Level FlightAware Approximate
12:17AM -30.2725 160.4619 61° Northeast 35,000  Level Aus ATC (Calculated)
12:18AM -30.2245 160.5606 61° Northeast  Level FlightAware Approximate
12:19AM -30.1563 160.7005 61° Northeast  Level FlightAware Approximate
12:20AM -30.0871 160.8420 61° Northeast  Level FlightAware Approximate
12:20AM -30.0769 160.8627 60° Northeast 35,000  Level Aus ATC (Calculated)
12:21AM -29.9109 161.1996 308° West 35,000  Level Aus ATC (Calculated)
12:21AM -29.9109 161.1996 240° Southwest 35,000  Level Aus ATC (Calculated)
12:22AM -29.9391 161.1426 60° Northeast  Level FlightAware Approximate
12:23AM -29.8400 161.3427 60° Northeast  Level FlightAware Approximate
12:24AM -29.7701 161.4833 60° Northeast  Level FlightAware Approximate
12:25AM -29.7000 161.6236 60° Northeast  Level FlightAware Approximate
12:26AM -29.6298 161.7638 60° Northeast  Level FlightAware Approximate
12:27AM -29.5595 161.9038 60° Northeast  Level FlightAware Approximate
12:28AM -29.4890 162.0435 60° Northeast  Level FlightAware Approximate
12:29AM -29.4055 162.1734 57° Northeast  Level Estimated
12:30AM -29.3308 162.3101 58° Northeast  Level FlightAware Approximate
12:31AM -29.2560 162.4466 58° Northeast  Level FlightAware Approximate
12:32AM -29.1439 162.7208 253° West 35,000  Level Aus ATC (Calculated)
12:32AM -29.1810 162.5829 58° Northeast  Level FlightAware Approximate
12:32AM -29.1439 162.7208 57° Northeast 35,000  Level Aus ATC (Calculated)
12:33AM -29.0680 162.8562 57° Northeast  Level FlightAware Approximate
12:34AM -28.9920 162.9915 57° Northeast  Level FlightAware Approximate
12:35AM -28.9158 163.1265 57° Northeast  Level FlightAware Approximate
12:36AM -28.8395 163.2613 57° Northeast  Level FlightAware Approximate
12:37AM -28.7630 163.3959 57° Northeast  Level FlightAware Approximate
12:38AM -28.6864 163.5304 57° Northeast  Level FlightAware Approximate
12:39AM -28.6097 163.6646 57° Northeast  Level FlightAware Approximate
12:40AM -28.5329 163.7986 57° Northeast  Level FlightAware Approximate
12:41AM -28.4559 163.9325 57° Northeast  Level FlightAware Approximate
12:42AM -28.3788 164.0661 57° Northeast  Level FlightAware Approximate
12:43AM -28.3015 164.1996 57° Northeast  Level FlightAware Approximate
12:44AM -28.2241 164.3329 57° Northeast  Level FlightAware Approximate
12:45AM -28.1467 164.4659 57° Northeast  Level FlightAware Approximate
12:46AM -28.0690 164.5988 57° Northeast  Level FlightAware Approximate
12:47AM -27.9913 164.7315 56° Northeast  Level FlightAware Approximate
12:48AM -27.9134 164.8640 56° Northeast  Level FlightAware Approximate
12:49AM -27.8354 164.9963 56° Northeast  Level FlightAware Approximate
12:50AM -27.7572 165.1284 56° Northeast  Level FlightAware Approximate
12:51AM -27.6790 165.2603 56° Northeast  Level FlightAware Approximate
12:52AM -27.6006 165.3920 56° Northeast  Level FlightAware Approximate
12:53AM -27.5221 165.5236 56° Northeast  Level FlightAware Approximate
12:54AM -27.4435 165.6549 56° Northeast  Level FlightAware Approximate
12:55AM -27.3647 165.7861 56° Northeast  Level FlightAware Approximate
12:56AM -27.2755 165.9084 50° Northeast  Level Estimated
12:57AM -27.1893 166.0333 52° Northeast  Level FlightAware Approximate
12:58AM -27.1031 166.1581 52° Northeast  Level FlightAware Approximate
12:59AM -27.0167 166.2826 52° Northeast  Level FlightAware Approximate
01:00AM -26.9302 166.4069 52° Northeast  Level FlightAware Approximate
01:01AM -26.8436 166.5311 52° Northeast  Level FlightAware Approximate
01:02AM -26.7569 166.6551 52° Northeast  Level FlightAware Approximate
01:03AM -26.6700 166.7789 52° Northeast  Level FlightAware Approximate
01:04AM -26.5831 166.9025 52° Northeast  Level FlightAware Approximate
01:05AM -26.4961 167.0259 52° Northeast  Level FlightAware Approximate
01:06AM -26.4090 167.1491 52° Northeast  Level FlightAware Approximate
01:07AM -26.3217 167.2721 52° Northeast  Level FlightAware Approximate
01:08AM -26.2344 167.3950 52° Northeast  Level FlightAware Approximate
01:09AM -26.1469 167.5176 52° Northeast  Level FlightAware Approximate
01:10AM -26.0594 167.6401 52° Northeast  Level FlightAware Approximate
01:11AM -25.9717 167.7624 51° Northeast  Level FlightAware Approximate
01:12AM -25.8840 167.8845 51° Northeast  Level FlightAware Approximate
01:13AM -25.7961 168.0065 51° Northeast  Level FlightAware Approximate
01:14AM -25.7082 168.1282 51° Northeast  Level FlightAware Approximate
01:15AM -25.6201 168.2498 51° Northeast  Level FlightAware Approximate
01:16AM -25.5319 168.3712 51° Northeast  Level FlightAware Approximate
01:17AM -25.4437 168.4924 51° Northeast  Level FlightAware Approximate
01:18AM -25.3553 168.6134 51° Northeast  Level FlightAware Approximate
01:19AM -25.2668 168.7343 51° Northeast  Level FlightAware Approximate
01:20AM -25.1783 168.8550 51° Northeast  Level FlightAware Approximate
01:21AM -25.0896 168.9755 51° Northeast  Level FlightAware Approximate
01:22AM -25.0009 169.0958 51° Northeast  Level FlightAware Approximate
01:23AM -24.9120 169.2160 51° Northeast  Level FlightAware Approximate
01:24AM -24.8231 169.3360 51° Northeast  Level FlightAware Approximate
01:25AM -24.7340 169.4558 51° Northeast  Level FlightAware Approximate
01:26AM -24.6449 169.5754 51° Northeast  Level FlightAware Approximate
01:27AM -24.5557 169.6949 51° Northeast  Level FlightAware Approximate
01:28AM -24.4663 169.8142 51° Northeast  Level FlightAware Approximate
01:29AM -24.3769 169.9333 51° Northeast  Level FlightAware Approximate
01:30AM -24.2874 170.0523 50° Northeast  Level FlightAware Approximate
01:31AM -24.1978 170.1711 50° Northeast  Level FlightAware Approximate
01:32AM -24.1081 170.2897 50° Northeast  Level FlightAware Approximate
01:33AM -24.0183 170.4082 50° Northeast  Level FlightAware Approximate
01:34AM -23.9284 170.5265 50° Northeast  Level FlightAware Approximate
01:35AM -23.8384 170.6446 50° Northeast  Level FlightAware Approximate
01:36AM -23.7484 170.7626 50° Northeast  Level FlightAware Approximate
01:37AM -23.6582 170.8804 50° Northeast  Level FlightAware Approximate
01:38AM -23.5680 170.9981 50° Northeast  Level FlightAware Approximate
01:39AM -23.4777 171.1156 50° Northeast  Level FlightAware Approximate
01:40AM -23.3820 171.2278 47° Northeast  Level Estimated
01:41AM -23.2894 171.3430 49° Northeast  Level FlightAware Approximate
01:42AM -23.1967 171.4581 49° Northeast  Level FlightAware Approximate
01:43AM -23.1040 171.5729 49° Northeast  Level FlightAware Approximate
01:44AM -23.0111 171.6877 49° Northeast  Level FlightAware Approximate
01:45AM -22.9182 171.8022 49° Northeast  Level FlightAware Approximate
01:46AM -22.8252 171.9166 49° Northeast  Level FlightAware Approximate
01:47AM -22.7321 172.0309 49° Northeast  Level FlightAware Approximate
01:48AM -22.6389 172.1450 49° Northeast  Level FlightAware Approximate
01:49AM -22.5456 172.2589 48° Northeast  Level FlightAware Approximate
01:50AM -22.4523 172.3727 48° Northeast  Level FlightAware Approximate
01:51AM -22.3589 172.4863 48° Northeast  Level FlightAware Approximate
01:52AM -22.2654 172.5998 48° Northeast  Level FlightAware Approximate
01:53AM -22.1718 172.7131 48° Northeast  Level FlightAware Approximate
01:54AM -22.0782 172.8263 48° Northeast  Level FlightAware Approximate
01:55AM -21.9844 172.9393 48° Northeast  Level FlightAware Approximate
01:56AM -21.8906 173.0522 48° Northeast  Level FlightAware Approximate
01:57AM -21.7967 173.1650 48° Northeast  Level FlightAware Approximate
01:58AM -21.7028 173.2775 48° Northeast  Level FlightAware Approximate
01:59AM -21.6087 173.3900 48° Northeast  Level FlightAware Approximate
02:00AM -21.5146 173.5023 48° Northeast  Level FlightAware Approximate
02:01AM -21.4205 173.6144 48° Northeast  Level FlightAware Approximate
02:02AM -21.3262 173.7264 48° Northeast  Level FlightAware Approximate
02:03AM -21.2319 173.8383 48° Northeast  Level FlightAware Approximate
02:04AM -21.1374 173.9500 48° Northeast  Level FlightAware Approximate
02:05AM -21.0430 174.0616 48° Northeast  Level FlightAware Approximate
02:06AM -20.9484 174.1730 48° Northeast  Level FlightAware Approximate
02:07AM -20.8538 174.2843 48° Northeast  Level FlightAware Approximate
02:08AM -20.7591 174.3954 48° Northeast  Level FlightAware Approximate
02:09AM -20.6643 174.5064 48° Northeast  Level FlightAware Approximate
02:10AM -20.5695 174.6173 48° Northeast  Level FlightAware Approximate
02:11AM -20.4683 174.7215 38° Northeast  Level Estimated
02:12AM -20.3670 174.8255 44° Northeast  Level FlightAware Approximate
02:13AM -20.2656 174.9294 44° Northeast  Level FlightAware Approximate
02:14AM -20.1643 175.0332 44° Northeast  Level FlightAware Approximate
02:15AM -20.0628 175.1368 44° Northeast  Level FlightAware Approximate
02:16AM -19.9613 175.2404 44° Northeast  Level FlightAware Approximate
02:17AM -19.8597 175.3437 44° Northeast  Level FlightAware Approximate
02:18AM -19.7581 175.4470 44° Northeast  Level FlightAware Approximate
02:19AM -19.6564 175.5501 44° Northeast  Level FlightAware Approximate
02:20AM -19.5547 175.6530 44° Northeast  Level FlightAware Approximate
02:21AM -19.4529 175.7559 44° Northeast  Level FlightAware Approximate
02:22AM -19.3510 175.8586 38° Northeast  Level Estimated
02:23AM -19.2490 175.9611 38° Northeast  Level Estimated
02:24AM -19.1470 176.0635 38° Northeast  Level Estimated
02:25AM -19.0449 176.1658 38° Northeast  Level Estimated
02:26AM -18.9428 176.2680 38° Northeast  Level Estimated
02:27AM -18.8406 176.3700 38° Northeast  Level Estimated
02:28AM -18.7383 176.4720 38° Northeast  Level Estimated
02:29AM -18.6360 176.5737 38° Northeast  Level Estimated
02:30AM -18.5337 176.6754 38° Northeast  Level Estimated
02:31AM -18.4313 176.7770 38° Northeast  Level Estimated
02:32AM -18.3288 176.8784 38° Northeast  Level Estimated
02:33AM -18.2263 176.9797 38° Northeast  Level Estimated
02:34AM -18.1238 177.0809 38° Northeast  Level Estimated
02:35AM -18.0211 177.1820 38° Northeast  Level Estimated
02:36AM -17.9185 177.2829 38° Northeast  Level Estimated
02:37AM -17.8157 177.3838 38° Northeast  Level Estimated
02:38AM -17.7564 177.4433 38° Northeast  Level FlightAware Approximate
02:39AM -17.7547 177.4436 38° Northeast  Level Estimated
02:40AM -17.7564 177.4433 38° Northeast  Level FlightAware Approximate
02:41AM -17.7547 177.4436 38° Northeast  Level Estimated
02:42AM -17.7564 177.4433 38° Northeast  Level FlightAware Approximate